Aviation Digital Data Service (ADDS)

Output produced by METARs form (1327 UTC 21 August 2019)
found at http://www.aviationweather.gov/metar/data/
 
METAR text: NCRG 211300Z AUTO 19003KT 9999 NCD 21/21 Q1015
Conditions at: NCRG (RAROTONGA COOK I, WS) observed 1300 UTC 21 August 2019
Temperature: 21.0°C (70°F)
Dewpoint: 21.0°C (70°F) [RH = 100%]
Pressure (altimeter): 29.97 inches Hg (1015.0 mb)
Winds: from the S (190 degrees) at 3 MPH (3 knots; 1.5 m/s)
Visibility: 6 or more miles (10+ km)
Ceiling: at least 12,000 feet AGL
Clouds: sky clear below 12,000 feet AGL
Weather: no significant weather observed at this time

METAR text: NCRG 211230Z AUTO 18001KT 9999 NCD 21/21 Q1015
Conditions at: NCRG (RAROTONGA COOK I, WS) observed 1230 UTC 21 August 2019
Temperature: 21.0°C (70°F)
Dewpoint: 21.0°C (70°F) [RH = 100%]
Pressure (altimeter): 29.97 inches Hg (1015.0 mb)
Winds: from the S (180 degrees) at 1 MPH (1 knots; 0.5 m/s)
Visibility: 6 or more miles (10+ km)
Ceiling: at least 12,000 feet AGL
Clouds: sky clear below 12,000 feet AGL
Weather: no significant weather observed at this time

METAR text: NCRG 211200Z AUTO 19002KT 9999 NCD 21/21 Q1015
Conditions at: NCRG (RAROTONGA COOK I, WS) observed 1200 UTC 21 August 2019
Temperature: 21.0°C (70°F)
Dewpoint: 21.0°C (70°F) [RH = 100%]
Pressure (altimeter): 29.97 inches Hg (1015.0 mb)
Winds: from the S (190 degrees) at 2 MPH (2 knots; 1.0 m/s)
Visibility: 6 or more miles (10+ km)
Ceiling: at least 12,000 feet AGL
Clouds: sky clear below 12,000 feet AGL
Weather: no significant weather observed at this time

METAR text: NCRG 211130Z AUTO 09002KT 9999 NCD 21/21 Q1015
Conditions at: NCRG (RAROTONGA COOK I, WS) observed 1130 UTC 21 August 2019
Temperature: 21.0°C (70°F)
Dewpoint: 21.0°C (70°F) [RH = 100%]
Pressure (altimeter): 29.97 inches Hg (1015.0 mb)
Winds: from the E (90 degrees) at 2 MPH (2 knots; 1.0 m/s)
Visibility: 6 or more miles (10+ km)
Ceiling: at least 12,000 feet AGL
Clouds: sky clear below 12,000 feet AGL
Weather: no significant weather observed at this time

METAR text: NCRG 211100Z AUTO 08001KT 9999 NCD 21/21 Q1015
Conditions at: NCRG (RAROTONGA COOK I, WS) observed 1100 UTC 21 August 2019
Temperature: 21.0°C (70°F)
Dewpoint: 21.0°C (70°F) [RH = 100%]
Pressure (altimeter): 29.97 inches Hg (1015.0 mb)
Winds: from the E (80 degrees) at 1 MPH (1 knots; 0.5 m/s)
Visibility: 6 or more miles (10+ km)
Ceiling: at least 12,000 feet AGL
Clouds: sky clear below 12,000 feet AGL
Weather: no significant weather observed at this time

METAR text: NCRG 211030Z AUTO 20003KT 9999 NCD 22/21 Q1015
Conditions at: NCRG (RAROTONGA COOK I, WS) observed 1030 UTC 21 August 2019
Temperature: 22.0°C (72°F)
Dewpoint: 21.0°C (70°F) [RH = 94%]
Pressure (altimeter): 29.97 inches Hg (1015.0 mb)
Winds: from the SSW (200 degrees) at 3 MPH (3 knots; 1.5 m/s)
Visibility: 6 or more miles (10+ km)
Ceiling: at least 12,000 feet AGL
Clouds: sky clear below 12,000 feet AGL
Weather: no significant weather observed at this time

METAR text: NCRG 211000Z AUTO 17001KT 9999 NCD 22/21 Q1015
Conditions at: NCRG (RAROTONGA COOK I, WS) observed 1000 UTC 21 August 2019
Temperature: 22.0°C (72°F)
Dewpoint: 21.0°C (70°F) [RH = 94%]
Pressure (altimeter): 29.97 inches Hg (1015.0 mb)
Winds: from the S (170 degrees) at 1 MPH (1 knots; 0.5 m/s)
Visibility: 6 or more miles (10+ km)
Ceiling: at least 12,000 feet AGL
Clouds: sky clear below 12,000 feet AGL
Weather: no significant weather observed at this time

METAR text: NCRG 210930Z AUTO 19002KT 7000 NCD 22/21 Q1015
Conditions at: NCRG (RAROTONGA COOK I, WS) observed 0930 UTC 21 August 2019
Temperature: 22.0°C (72°F)
Dewpoint: 21.0°C (70°F) [RH = 94%]
Pressure (altimeter): 29.97 inches Hg (1015.0 mb)
Winds: from the S (190 degrees) at 2 MPH (2 knots; 1.0 m/s)
Visibility: 4 miles ( 7 km)
Ceiling: at least 12,000 feet AGL
Clouds: sky clear below 12,000 feet AGL
Weather: no significant weather observed at this time

METAR text: NCRG 210900Z AUTO 19002KT 9999 NCD 22/21 Q1015
Conditions at: NCRG (RAROTONGA COOK I, WS) observed 0900 UTC 21 August 2019
Temperature: 22.0°C (72°F)
Dewpoint: 21.0°C (70°F) [RH = 94%]
Pressure (altimeter): 29.97 inches Hg (1015.0 mb)
Winds: from the S (190 degrees) at 2 MPH (2 knots; 1.0 m/s)
Visibility: 6 or more miles (10+ km)
Ceiling: at least 12,000 feet AGL
Clouds: sky clear below 12,000 feet AGL
Weather: no significant weather observed at this time

METAR text: NCRG 210830Z AUTO 20003KT 9999 NCD 22/21 Q1015
Conditions at: NCRG (RAROTONGA COOK I, WS) observed 0830 UTC 21 August 2019
Temperature: 22.0°C (72°F)
Dewpoint: 21.0°C (70°F) [RH = 94%]
Pressure (altimeter): 29.97 inches Hg (1015.0 mb)
Winds: from the SSW (200 degrees) at 3 MPH (3 knots; 1.5 m/s)
Visibility: 6 or more miles (10+ km)
Ceiling: at least 12,000 feet AGL
Clouds: sky clear below 12,000 feet AGL
Weather: no significant weather observed at this time

METAR text: NCRG 210800Z AUTO 19003KT 9999 NCD 22/22 Q1015
Conditions at: NCRG (RAROTONGA COOK I, WS) observed 0800 UTC 21 August 2019
Temperature: 22.0°C (72°F)
Dewpoint: 22.0°C (72°F) [RH = 100%]
Pressure (altimeter): 29.97 inches Hg (1015.0 mb)
Winds: from the S (190 degrees) at 3 MPH (3 knots; 1.5 m/s)
Visibility: 6 or more miles (10+ km)
Ceiling: at least 12,000 feet AGL
Clouds: sky clear below 12,000 feet AGL
Weather: no significant weather observed at this time

METAR text: NCRG 210730Z AUTO 18002KT 9999 SCT080/// 23/22 Q1015
Conditions at: NCRG (RAROTONGA COOK I, WS) observed 0730 UTC 21 August 2019
Temperature: 23.0°C (73°F)
Dewpoint: 22.0°C (72°F) [RH = 94%]
Pressure (altimeter): 29.97 inches Hg (1015.0 mb)
Winds: from the S (180 degrees) at 2 MPH (2 knots; 1.0 m/s)
Visibility: 6 or more miles (10+ km)
Ceiling: at least 12,000 feet AGL
Clouds: scattered clouds at 8000 feet AGL
Weather: no significant weather observed at this time

METAR text: NCRG 210700Z AUTO 17001KT 9999 FEW080/// 23/22 Q1015
Conditions at: NCRG (RAROTONGA COOK I, WS) observed 0700 UTC 21 August 2019
Temperature: 23.0°C (73°F)
Dewpoint: 22.0°C (72°F) [RH = 94%]
Pressure (altimeter): 29.97 inches Hg (1015.0 mb)
Winds: from the S (170 degrees) at 1 MPH (1 knots; 0.5 m/s)
Visibility: 6 or more miles (10+ km)
Ceiling: at least 12,000 feet AGL
Clouds: few clouds at 8000 feet AGL
Weather: no significant weather observed at this time

METAR text: NCRG 210630Z AUTO 21001KT 9999 FEW070/// 24/22 Q1015
Conditions at: NCRG (RAROTONGA COOK I, WS) observed 0630 UTC 21 August 2019
Temperature: 24.0°C (75°F)
Dewpoint: 22.0°C (72°F) [RH = 89%]
Pressure (altimeter): 29.97 inches Hg (1015.0 mb)
Winds: from the SSW (210 degrees) at 1 MPH (1 knots; 0.5 m/s)
Visibility: 6 or more miles (10+ km)
Ceiling: at least 12,000 feet AGL
Clouds: few clouds at 7000 feet AGL
Weather: no significant weather observed at this time

METAR text: NCRG 210600Z AUTO 21002KT 9999 FEW070/// 24/23 Q1015
Conditions at: NCRG (RAROTONGA COOK I, WS) observed 0600 UTC 21 August 2019
Temperature: 24.0°C (75°F)
Dewpoint: 23.0°C (73°F) [RH = 94%]
Pressure (altimeter): 29.97 inches Hg (1015.0 mb)
Winds: from the SSW (210 degrees) at 2 MPH (2 knots; 1.0 m/s)
Visibility: 6 or more miles (10+ km)
Ceiling: at least 12,000 feet AGL
Clouds: few clouds at 7000 feet AGL
Weather: no significant weather observed at this time

METAR text: NCRG 210530Z AUTO 21003KT 160V270 9999 BKN075/// 24/23 Q1014
Conditions at: NCRG (RAROTONGA COOK I, WS) observed 0530 UTC 21 August 2019
Temperature: 24.0°C (75°F)
Dewpoint: 23.0°C (73°F) [RH = 94%]
Pressure (altimeter): 29.94 inches Hg (1014.0 mb)
Winds: from the SSW (210 degrees) at 3 MPH (3 knots; 1.5 m/s)
Visibility: 6 or more miles (10+ km)
Ceiling: 7500 feet AGL
Clouds: broken clouds at 7500 feet AGL
Weather: no significant weather observed at this time

METAR text: NCRG 210500Z AUTO 22003KT 170V260 9999 BKN075/// 25/23 Q1014
Conditions at: NCRG (RAROTONGA COOK I, WS) observed 0500 UTC 21 August 2019
Temperature: 25.0°C (77°F)
Dewpoint: 23.0°C (73°F) [RH = 89%]
Pressure (altimeter): 29.94 inches Hg (1014.0 mb)
Winds: from the SW (220 degrees) at 3 MPH (3 knots; 1.5 m/s)
Visibility: 6 or more miles (10+ km)
Ceiling: 7500 feet AGL
Clouds: broken clouds at 7500 feet AGL
Weather: no significant weather observed at this time

METAR text: NCRG 210430Z AUTO 23003KT 180V270 9999 SCT011/// OVC065/// 25/23 Q1013
Conditions at: NCRG (RAROTONGA COOK I, WS) observed 0430 UTC 21 August 2019
Temperature: 25.0°C (77°F)
Dewpoint: 23.0°C (73°F) [RH = 89%]
Pressure (altimeter): 29.91 inches Hg (1013.0 mb)
Winds: from the SW (230 degrees) at 3 MPH (3 knots; 1.5 m/s)
Visibility: 6 or more miles (10+ km)
Ceiling: 6500 feet AGL
Clouds: scattered clouds at 1100 feet AGL
overcast cloud deck at 6500 feet AGL
Weather: no significant weather observed at this time

METAR text: NCRG 210400Z AUTO 23004KT 180V260 9999 BKN011/// OVC065/// 25/23 Q1013
Conditions at: NCRG (RAROTONGA COOK I, WS) observed 0400 UTC 21 August 2019
Temperature: 25.0°C (77°F)
Dewpoint: 23.0°C (73°F) [RH = 89%]
Pressure (altimeter): 29.91 inches Hg (1013.0 mb)
Winds: from the SW (230 degrees) at 5 MPH (4 knots; 2.1 m/s)
Visibility: 6 or more miles (10+ km)
Ceiling: 1100 feet AGL
Clouds: broken clouds at 1100 feet AGL
overcast cloud deck at 6500 feet AGL
Weather: no significant weather observed at this time

METAR text: NCRG 210330Z AUTO 24006KT 9999 SCT012/// BKN065/// 25/23 Q1013
Conditions at: NCRG (RAROTONGA COOK I, WS) observed 0330 UTC 21 August 2019
Temperature: 25.0°C (77°F)
Dewpoint: 23.0°C (73°F) [RH = 89%]
Pressure (altimeter): 29.91 inches Hg (1013.0 mb)
Winds: from the WSW (240 degrees) at 7 MPH (6 knots; 3.1 m/s)
Visibility: 6 or more miles (10+ km)
Ceiling: 6500 feet AGL
Clouds: scattered clouds at 1200 feet AGL
broken clouds at 6500 feet AGL
Weather: no significant weather observed at this time

METAR text: NCRG 210300Z AUTO 23005KT 190V270 9999 SCT011/// BKN050/// BKN070/// 26/23 Q1012
Conditions at: NCRG (RAROTONGA COOK I, WS) observed 0300 UTC 21 August 2019
Temperature: 26.0°C (79°F)
Dewpoint: 23.0°C (73°F) [RH = 84%]
Pressure (altimeter): 29.88 inches Hg (1012.0 mb)
Winds: from the SW (230 degrees) at 6 MPH (5 knots; 2.6 m/s)
Visibility: 6 or more miles (10+ km)
Ceiling: 5000 feet AGL
Clouds: scattered clouds at 1100 feet AGL
broken clouds at 5000 feet AGL
broken clouds at 7000 feet AGL
Weather: no significant weather observed at this time

METAR text: NCRG 210230Z AUTO 24005KT 210V280 9999 FEW012/// BKN060/// 26/23 Q1012
Conditions at: NCRG (RAROTONGA COOK I, WS) observed 0230 UTC 21 August 2019
Temperature: 26.0°C (79°F)
Dewpoint: 23.0°C (73°F) [RH = 84%]
Pressure (altimeter): 29.88 inches Hg (1012.0 mb)
Winds: from the WSW (240 degrees) at 6 MPH (5 knots; 2.6 m/s)
Visibility: 6 or more miles (10+ km)
Ceiling: 6000 feet AGL
Clouds: few clouds at 1200 feet AGL
broken clouds at 6000 feet AGL
Weather: no significant weather observed at this time

METAR text: NCRG 210200Z AUTO 25006KT 210V290 9999 NCD 26/23 Q1012
Conditions at: NCRG (RAROTONGA COOK I, WS) observed 0200 UTC 21 August 2019
Temperature: 26.0°C (79°F)
Dewpoint: 23.0°C (73°F) [RH = 84%]
Pressure (altimeter): 29.88 inches Hg (1012.0 mb)
Winds: from the WSW (250 degrees) at 7 MPH (6 knots; 3.1 m/s)
Visibility: 6 or more miles (10+ km)
Ceiling: at least 12,000 feet AGL
Clouds: sky clear below 12,000 feet AGL
Weather: no significant weather observed at this time

METAR text: NCRG 210130Z AUTO 25006KT 210V270 9999 SCT055/// 26/23 Q1012
Conditions at: NCRG (RAROTONGA COOK I, WS) observed 0130 UTC 21 August 2019
Temperature: 26.0°C (79°F)
Dewpoint: 23.0°C (73°F) [RH = 84%]
Pressure (altimeter): 29.88 inches Hg (1012.0 mb)
Winds: from the WSW (250 degrees) at 7 MPH (6 knots; 3.1 m/s)
Visibility: 6 or more miles (10+ km)
Ceiling: at least 12,000 feet AGL
Clouds: scattered clouds at 5500 feet AGL
Weather: no significant weather observed at this time

METAR text: NCRG 210100Z AUTO 26007KT 9999 FEW055/// 26/23 Q1012
Conditions at: NCRG (RAROTONGA COOK I, WS) observed 0100 UTC 21 August 2019
Temperature: 26.0°C (79°F)
Dewpoint: 23.0°C (73°F) [RH = 84%]
Pressure (altimeter): 29.88 inches Hg (1012.0 mb)
Winds: from the W (260 degrees) at 8 MPH (7 knots; 3.6 m/s)
Visibility: 6 or more miles (10+ km)
Ceiling: at least 12,000 feet AGL
Clouds: few clouds at 5500 feet AGL
Weather: no significant weather observed at this time

METAR text: NCRG 210030Z AUTO 25008KT 9999 BKN050/// 26/23 Q1012
Conditions at: NCRG (RAROTONGA COOK I, WS) observed 0030 UTC 21 August 2019
Temperature: 26.0°C (79°F)
Dewpoint: 23.0°C (73°F) [RH = 84%]
Pressure (altimeter): 29.88 inches Hg (1012.0 mb)
Winds: from the WSW (250 degrees) at 9 MPH (8 knots; 4.1 m/s)
Visibility: 6 or more miles (10+ km)
Ceiling: 5000 feet AGL
Clouds: broken clouds at 5000 feet AGL
Weather: no significant weather observed at this time

METAR text: NCRG 210000Z AUTO 26010KT 9999 FEW016/// BKN050/// 26/22 Q1012
Conditions at: NCRG (RAROTONGA COOK I, WS) observed 0000 UTC 21 August 2019
Temperature: 26.0°C (79°F)
Dewpoint: 22.0°C (72°F) [RH = 79%]
Pressure (altimeter): 29.88 inches Hg (1012.0 mb)
Winds: from the W (260 degrees) at 12 MPH (10 knots; 5.1 m/s)
Visibility: 6 or more miles (10+ km)
Ceiling: 5000 feet AGL
Clouds: few clouds at 1600 feet AGL
broken clouds at 5000 feet AGL
Weather: no significant weather observed at this time

METAR text: NCRG 202330Z AUTO 27008KT 9999 FEW040/// 27/23 Q1012
Conditions at: NCRG (RAROTONGA COOK I, WS) observed 2330 UTC 20 August 2019
Temperature: 27.0°C (81°F)
Dewpoint: 23.0°C (73°F) [RH = 79%]
Pressure (altimeter): 29.88 inches Hg (1012.0 mb)
Winds: from the W (270 degrees) at 9 MPH (8 knots; 4.1 m/s)
Visibility: 6 or more miles (10+ km)
Ceiling: at least 12,000 feet AGL
Clouds: few clouds at 4000 feet AGL
Weather: no significant weather observed at this time

METAR text: NCRG 202300Z AUTO 29005KT 9999 NCD 26/23 Q1012
Conditions at: NCRG (RAROTONGA COOK I, WS) observed 2300 UTC 20 August 2019
Temperature: 26.0°C (79°F)
Dewpoint: 23.0°C (73°F) [RH = 84%]
Pressure (altimeter): 29.88 inches Hg (1012.0 mb)
Winds: from the WNW (290 degrees) at 6 MPH (5 knots; 2.6 m/s)
Visibility: 6 or more miles (10+ km)
Ceiling: at least 12,000 feet AGL
Clouds: sky clear below 12,000 feet AGL
Weather: no significant weather observed at this time

METAR text: NCRG 202230Z AUTO 30003KT 260V340 9999 NCD 27/24 Q1012
Conditions at: NCRG (RAROTONGA COOK I, WS) observed 2230 UTC 20 August 2019
Temperature: 27.0°C (81°F)
Dewpoint: 24.0°C (75°F) [RH = 84%]
Pressure (altimeter): 29.88 inches Hg (1012.0 mb)
Winds: from the WNW (300 degrees) at 3 MPH (3 knots; 1.5 m/s)
Visibility: 6 or more miles (10+ km)
Ceiling: at least 12,000 feet AGL
Clouds: sky clear below 12,000 feet AGL
Weather: no significant weather observed at this time

METAR text: NCRG 202200Z AUTO 32002KT 9999 NCD 26/24 Q1013
Conditions at: NCRG (RAROTONGA COOK I, WS) observed 2200 UTC 20 August 2019
Temperature: 26.0°C (79°F)
Dewpoint: 24.0°C (75°F) [RH = 89%]
Pressure (altimeter): 29.91 inches Hg (1013.0 mb)
Winds: from the NW (320 degrees) at 2 MPH (2 knots; 1.0 m/s)
Visibility: 6 or more miles (10+ km)
Ceiling: at least 12,000 feet AGL
Clouds: sky clear below 12,000 feet AGL
Weather: no significant weather observed at this time

METAR text: NCRG 202130Z AUTO 04003KT 340V080 9999 SCT060/// BKN090/// 25/23 Q1013
Conditions at: NCRG (RAROTONGA COOK I, WS) observed 2130 UTC 20 August 2019
Temperature: 25.0°C (77°F)
Dewpoint: 23.0°C (73°F) [RH = 89%]
Pressure (altimeter): 29.91 inches Hg (1013.0 mb)
Winds: from the NE (40 degrees) at 3 MPH (3 knots; 1.5 m/s)
Visibility: 6 or more miles (10+ km)
Ceiling: 9000 feet AGL
Clouds: scattered clouds at 6000 feet AGL
broken clouds at 9000 feet AGL
Weather: no significant weather observed at this time

METAR text: NCRG 202100Z AUTO 01002KT 9999 OVC070/// 25/23 Q1013
Conditions at: NCRG (RAROTONGA COOK I, WS) observed 2100 UTC 20 August 2019
Temperature: 25.0°C (77°F)
Dewpoint: 23.0°C (73°F) [RH = 89%]
Pressure (altimeter): 29.91 inches Hg (1013.0 mb)
Winds: from the N (10 degrees) at 2 MPH (2 knots; 1.0 m/s)
Visibility: 6 or more miles (10+ km)
Ceiling: 7000 feet AGL
Clouds: overcast cloud deck at 7000 feet AGL
Weather: no significant weather observed at this time

METAR text: NCRG 202030Z AUTO 09003KT 040V130 9999 BKN070/// 24/23 Q1013
Conditions at: NCRG (RAROTONGA COOK I, WS) observed 2030 UTC 20 August 2019
Temperature: 24.0°C (75°F)
Dewpoint: 23.0°C (73°F) [RH = 94%]
Pressure (altimeter): 29.91 inches Hg (1013.0 mb)
Winds: from the E (90 degrees) at 3 MPH (3 knots; 1.5 m/s)
Visibility: 6 or more miles (10+ km)
Ceiling: 7000 feet AGL
Clouds: broken clouds at 7000 feet AGL
Weather: no significant weather observed at this time

METAR text: NCRG 202000Z AUTO 06005KT 9999 FEW005/// SCT065/// BKN085/// 24/23 Q1013
Conditions at: NCRG (RAROTONGA COOK I, WS) observed 2000 UTC 20 August 2019
Temperature: 24.0°C (75°F)
Dewpoint: 23.0°C (73°F) [RH = 94%]
Pressure (altimeter): 29.91 inches Hg (1013.0 mb)
Winds: from the ENE (60 degrees) at 6 MPH (5 knots; 2.6 m/s)
Visibility: 6 or more miles (10+ km)
Ceiling: 8500 feet AGL
Clouds: few clouds at 500 feet AGL
scattered clouds at 6500 feet AGL
broken clouds at 8500 feet AGL
Weather: no significant weather observed at this time

METAR text: NCRG 201930Z AUTO 05001KT 9000 -RA FEW005/// BKN043/// OVC050/// 24/23 Q1013
Conditions at: NCRG (RAROTONGA COOK I, WS) observed 1930 UTC 20 August 2019
Temperature: 24.0°C (75°F)
Dewpoint: 23.0°C (73°F) [RH = 94%]
Pressure (altimeter): 29.91 inches Hg (1013.0 mb)
Winds: from the NE (50 degrees) at 1 MPH (1 knots; 0.5 m/s)
Visibility: 6 miles ( 9 km)
Ceiling: 4300 feet AGL
Clouds: few clouds at 500 feet AGL
broken clouds at 4300 feet AGL
overcast cloud deck at 5000 feet AGL
Weather: -RA  (light rain)

METAR text: NCRG 201900Z AUTO 05002KT 5000 RA BR FEW004/// BKN029/// OVC043/// 23/23 Q1013 RERA
Conditions at: NCRG (RAROTONGA COOK I, WS) observed 1900 UTC 20 August 2019
Temperature: 23.0°C (73°F)
Dewpoint: 23.0°C (73°F) [RH = 100%]
Pressure (altimeter): 29.91 inches Hg (1013.0 mb)
Winds: from the NE (50 degrees) at 2 MPH (2 knots; 1.0 m/s)
Visibility: 3 miles ( 5 km)
Ceiling: 2900 feet AGL
Clouds: few clouds at 400 feet AGL
broken clouds at 2900 feet AGL
overcast cloud deck at 4300 feet AGL
Weather: RA BR  (moderate rain, mist)

METAR text: NCRG 201830Z AUTO 25001KT 2200 +RA BCFG FEW003/// BKN026/// OVC034/// 24/23 Q1013 RERA
Conditions at: NCRG (RAROTONGA COOK I, WS) observed 1830 UTC 20 August 2019
Temperature: 24.0°C (75°F)
Dewpoint: 23.0°C (73°F) [RH = 94%]
Pressure (altimeter): 29.91 inches Hg (1013.0 mb)
Winds: from the WSW (250 degrees) at 1 MPH (1 knots; 0.5 m/s)
Visibility: 1.37 miles (2.20 km)
Ceiling: 2600 feet AGL
Clouds: few clouds at 300 feet AGL
broken clouds at 2600 feet AGL
overcast cloud deck at 3400 feet AGL
Weather: +RA BCFG  (heavy rain, patches of fog)

METAR text: NCRG 201800Z AUTO 07002KT 5000 +RA BR BKN004/// BKN008/// OVC031/// 24/23 Q1012
Conditions at: NCRG (RAROTONGA COOK I, WS) observed 1800 UTC 20 August 2019
Temperature: 24.0°C (75°F)
Dewpoint: 23.0°C (73°F) [RH = 94%]
Pressure (altimeter): 29.88 inches Hg (1012.0 mb)
Winds: from the ENE (70 degrees) at 2 MPH (2 knots; 1.0 m/s)
Visibility: 3 miles ( 5 km)
Ceiling: 400 feet AGL
Clouds: broken clouds at 400 feet AGL
broken clouds at 800 feet AGL
overcast cloud deck at 3100 feet AGL
Weather: +RA BR  (heavy rain, mist)

METAR text: NCRG 201730Z AUTO 07003KT 350V100 9999 -RA FEW011/// BKN031/// OVC100/// 24/23 Q1012
Conditions at: NCRG (RAROTONGA COOK I, WS) observed 1730 UTC 20 August 2019
Temperature: 24.0°C (75°F)
Dewpoint: 23.0°C (73°F) [RH = 94%]
Pressure (altimeter): 29.88 inches Hg (1012.0 mb)
Winds: from the ENE (70 degrees) at 3 MPH (3 knots; 1.5 m/s)
Visibility: 6 or more miles (10+ km)
Ceiling: 3100 feet AGL
Clouds: few clouds at 1100 feet AGL
broken clouds at 3100 feet AGL
overcast cloud deck at 10000 feet AGL
Weather: -RA  (light rain)

METAR text: NCRG 201700Z AUTO 11002KT 9999 SCT031/// BKN065/// 23/23 Q1011
Conditions at: NCRG (RAROTONGA COOK I, WS) observed 1700 UTC 20 August 2019
Temperature: 23.0°C (73°F)
Dewpoint: 23.0°C (73°F) [RH = 100%]
Pressure (altimeter): 29.85 inches Hg (1011.0 mb)
Winds: from the ESE (110 degrees) at 2 MPH (2 knots; 1.0 m/s)
Visibility: 6 or more miles (10+ km)
Ceiling: 6500 feet AGL
Clouds: scattered clouds at 3100 feet AGL
broken clouds at 6500 feet AGL
Weather: no significant weather observed at this time

METAR text: NCRG 201630Z AUTO 22003KT 170V270 9999 -RA FEW012/// SCT025/// BKN032/// 24/23 Q1011 RERA
Conditions at: NCRG (RAROTONGA COOK I, WS) observed 1630 UTC 20 August 2019
Temperature: 24.0°C (75°F)
Dewpoint: 23.0°C (73°F) [RH = 94%]
Pressure (altimeter): 29.85 inches Hg (1011.0 mb)
Winds: from the SW (220 degrees) at 3 MPH (3 knots; 1.5 m/s)
Visibility: 6 or more miles (10+ km)
Ceiling: 3200 feet AGL
Clouds: few clouds at 1200 feet AGL
scattered clouds at 2500 feet AGL
broken clouds at 3200 feet AGL
Weather: -RA  (light rain)

METAR text: NCRG 201600Z AUTO 21005KT 160V270 9999 OVC013/// 24/23 Q1010
Conditions at: NCRG (RAROTONGA COOK I, WS) observed 1600 UTC 20 August 2019
Temperature: 24.0°C (75°F)
Dewpoint: 23.0°C (73°F) [RH = 94%]
Pressure (altimeter): 29.82 inches Hg (1010.0 mb)
Winds: from the SSW (210 degrees) at 6 MPH (5 knots; 2.6 m/s)
Visibility: 6 or more miles (10+ km)
Ceiling: 1300 feet AGL
Clouds: overcast cloud deck at 1300 feet AGL
Weather: no significant weather observed at this time

METAR text: NCRG 201530Z AUTO 22005KT 180V260 9999 OVC012/// 24/23 Q1010
Conditions at: NCRG (RAROTONGA COOK I, WS) observed 1530 UTC 20 August 2019
Temperature: 24.0°C (75°F)
Dewpoint: 23.0°C (73°F) [RH = 94%]
Pressure (altimeter): 29.82 inches Hg (1010.0 mb)
Winds: from the SW (220 degrees) at 6 MPH (5 knots; 2.6 m/s)
Visibility: 6 or more miles (10+ km)
Ceiling: 1200 feet AGL
Clouds: overcast cloud deck at 1200 feet AGL
Weather: no significant weather observed at this time

METAR text: NCRG 201500Z AUTO 27008KT 220V290 9999 SCT009/// BKN015/// BKN037/// 25/24 Q1010
Conditions at: NCRG (RAROTONGA COOK I, WS) observed 1500 UTC 20 August 2019
Temperature: 25.0°C (77°F)
Dewpoint: 24.0°C (75°F) [RH = 94%]
Pressure (altimeter): 29.82 inches Hg (1010.0 mb)
Winds: from the W (270 degrees) at 9 MPH (8 knots; 4.1 m/s)
Visibility: 6 or more miles (10+ km)
Ceiling: 1500 feet AGL
Clouds: scattered clouds at 900 feet AGL
broken clouds at 1500 feet AGL
broken clouds at 3700 feet AGL
Weather: no significant weather observed at this time

METAR text: NCRG 201430Z AUTO 29010KT 9999 BKN010/// OVC014/// 25/24 Q1010
Conditions at: NCRG (RAROTONGA COOK I, WS) observed 1430 UTC 20 August 2019
Temperature: 25.0°C (77°F)
Dewpoint: 24.0°C (75°F) [RH = 94%]
Pressure (altimeter): 29.82 inches Hg (1010.0 mb)
Winds: from the WNW (290 degrees) at 12 MPH (10 knots; 5.1 m/s)
Visibility: 6 or more miles (10+ km)
Ceiling: 1000 feet AGL
Clouds: broken clouds at 1000 feet AGL
overcast cloud deck at 1400 feet AGL
Weather: no significant weather observed at this time

METAR text: NCRG 201400Z AUTO 29008KT 9999 OVC010/// 25/24 Q1010
Conditions at: NCRG (RAROTONGA COOK I, WS) observed 1400 UTC 20 August 2019
Temperature: 25.0°C (77°F)
Dewpoint: 24.0°C (75°F) [RH = 94%]
Pressure (altimeter): 29.82 inches Hg (1010.0 mb)
Winds: from the WNW (290 degrees) at 9 MPH (8 knots; 4.1 m/s)
Visibility: 6 or more miles (10+ km)
Ceiling: 1000 feet AGL
Clouds: overcast cloud deck at 1000 feet AGL
Weather: no significant weather observed at this time

METAR text: NCRG 201330Z AUTO 30009KT 9999 BKN012/// 25/24 Q1010
Conditions at: NCRG (RAROTONGA COOK I, WS) observed 1330 UTC 20 August 2019
Temperature: 25.0°C (77°F)
Dewpoint: 24.0°C (75°F) [RH = 94%]
Pressure (altimeter): 29.82 inches Hg (1010.0 mb)
Winds: from the WNW (300 degrees) at 10 MPH (9 knots; 4.6 m/s)
Visibility: 6 or more miles (10+ km)
Ceiling: 1200 feet AGL
Clouds: broken clouds at 1200 feet AGL
Weather: no significant weather observed at this time

METAR text: NCRG 201300Z AUTO 31007KT 9999 FEW010/// 25/24 Q1010
Conditions at: NCRG (RAROTONGA COOK I, WS) observed 1300 UTC 20 August 2019
Temperature: 25.0°C (77°F)
Dewpoint: 24.0°C (75°F) [RH = 94%]
Pressure (altimeter): 29.82 inches Hg (1010.0 mb)
Winds: from the NW (310 degrees) at 8 MPH (7 knots; 3.6 m/s)
Visibility: 6 or more miles (10+ km)
Ceiling: at least 12,000 feet AGL
Clouds: few clouds at 1000 feet AGL
Weather: no significant weather observed at this time

METAR text: NCRG 201230Z AUTO 32009KT 9999 BKN010/// 25/24 Q1010
Conditions at: NCRG (RAROTONGA COOK I, WS) observed 1230 UTC 20 August 2019
Temperature: 25.0°C (77°F)
Dewpoint: 24.0°C (75°F) [RH = 94%]
Pressure (altimeter): 29.82 inches Hg (1010.0 mb)
Winds: from the NW (320 degrees) at 10 MPH (9 knots; 4.6 m/s)
Visibility: 6 or more miles (10+ km)
Ceiling: 1000 feet AGL
Clouds: broken clouds at 1000 feet AGL
Weather: no significant weather observed at this time

METAR text: NCRG 201200Z AUTO 34008KT 9999 -RA FEW012/// BKN026/// 25/24 Q1011
Conditions at: NCRG (RAROTONGA COOK I, WS) observed 1200 UTC 20 August 2019
Temperature: 25.0°C (77°F)
Dewpoint: 24.0°C (75°F) [RH = 94%]
Pressure (altimeter): 29.85 inches Hg (1011.0 mb)
Winds: from the NNW (340 degrees) at 9 MPH (8 knots; 4.1 m/s)
Visibility: 6 or more miles (10+ km)
Ceiling: 2600 feet AGL
Clouds: few clouds at 1200 feet AGL
broken clouds at 2600 feet AGL
Weather: -RA  (light rain)

METAR text: NCRG 201130Z AUTO 35007KT 9999 SCT012/// BKN026/// BKN033/// 25/24 Q1011
Conditions at: NCRG (RAROTONGA COOK I, WS) observed 1130 UTC 20 August 2019
Temperature: 25.0°C (77°F)
Dewpoint: 24.0°C (75°F) [RH = 94%]
Pressure (altimeter): 29.85 inches Hg (1011.0 mb)
Winds: from the N (350 degrees) at 8 MPH (7 knots; 3.6 m/s)
Visibility: 6 or more miles (10+ km)
Ceiling: 2600 feet AGL
Clouds: scattered clouds at 1200 feet AGL
broken clouds at 2600 feet AGL
broken clouds at 3300 feet AGL
Weather: no significant weather observed at this time

METAR text: NCRG 201100Z AUTO 34007KT 9999 FEW010/// SCT015/// BKN024/// 25/24 Q1011
Conditions at: NCRG (RAROTONGA COOK I, WS) observed 1100 UTC 20 August 2019
Temperature: 25.0°C (77°F)
Dewpoint: 24.0°C (75°F) [RH = 94%]
Pressure (altimeter): 29.85 inches Hg (1011.0 mb)
Winds: from the NNW (340 degrees) at 8 MPH (7 knots; 3.6 m/s)
Visibility: 6 or more miles (10+ km)
Ceiling: 2400 feet AGL
Clouds: few clouds at 1000 feet AGL
scattered clouds at 1500 feet AGL
broken clouds at 2400 feet AGL
Weather: no significant weather observed at this time

METAR text: NCRG 201030Z AUTO 33009KT 9999 -RA BKN012/// BKN018/// OVC055/// 25/24 Q1011
Conditions at: NCRG (RAROTONGA COOK I, WS) observed 1030 UTC 20 August 2019
Temperature: 25.0°C (77°F)
Dewpoint: 24.0°C (75°F) [RH = 94%]
Pressure (altimeter): 29.85 inches Hg (1011.0 mb)
Winds: from the NNW (330 degrees) at 10 MPH (9 knots; 4.6 m/s)
Visibility: 6 or more miles (10+ km)
Ceiling: 1200 feet AGL
Clouds: broken clouds at 1200 feet AGL
broken clouds at 1800 feet AGL
overcast cloud deck at 5500 feet AGL
Weather: -RA  (light rain)

METAR text: NCRG 201000Z AUTO 33008KT 9999 SCT012/// BKN027/// BKN032/// 25/24 Q1011
Conditions at: NCRG (RAROTONGA COOK I, WS) observed 1000 UTC 20 August 2019
Temperature: 25.0°C (77°F)
Dewpoint: 24.0°C (75°F) [RH = 94%]
Pressure (altimeter): 29.85 inches Hg (1011.0 mb)
Winds: from the NNW (330 degrees) at 9 MPH (8 knots; 4.1 m/s)
Visibility: 6 or more miles (10+ km)
Ceiling: 2700 feet AGL
Clouds: scattered clouds at 1200 feet AGL
broken clouds at 2700 feet AGL
broken clouds at 3200 feet AGL
Weather: no significant weather observed at this time

METAR text: NCRG 200930Z AUTO 33008KT 9999 BKN014/// 25/24 Q1011
Conditions at: NCRG (RAROTONGA COOK I, WS) observed 0930 UTC 20 August 2019
Temperature: 25.0°C (77°F)
Dewpoint: 24.0°C (75°F) [RH = 94%]
Pressure (altimeter): 29.85 inches Hg (1011.0 mb)
Winds: from the NNW (330 degrees) at 9 MPH (8 knots; 4.1 m/s)
Visibility: 6 or more miles (10+ km)
Ceiling: 1400 feet AGL
Clouds: broken clouds at 1400 feet AGL
Weather: no significant weather observed at this time

METAR text: NCRG 200900Z AUTO 34009KT 9999 BKN050/// 25/23 Q1011
Conditions at: NCRG (RAROTONGA COOK I, WS) observed 0900 UTC 20 August 2019
Temperature: 25.0°C (77°F)
Dewpoint: 23.0°C (73°F) [RH = 89%]
Pressure (altimeter): 29.85 inches Hg (1011.0 mb)
Winds: from the NNW (340 degrees) at 10 MPH (9 knots; 4.6 m/s)
Visibility: 6 or more miles (10+ km)
Ceiling: 5000 feet AGL
Clouds: broken clouds at 5000 feet AGL
Weather: no significant weather observed at this time

METAR text: NCRG 200830Z AUTO 34008KT 9999 SCT033/// OVC055/// 25/23 Q1012
Conditions at: NCRG (RAROTONGA COOK I, WS) observed 0830 UTC 20 August 2019
Temperature: 25.0°C (77°F)
Dewpoint: 23.0°C (73°F) [RH = 89%]
Pressure (altimeter): 29.88 inches Hg (1012.0 mb)
Winds: from the NNW (340 degrees) at 9 MPH (8 knots; 4.1 m/s)
Visibility: 6 or more miles (10+ km)
Ceiling: 5500 feet AGL
Clouds: scattered clouds at 3300 feet AGL
overcast cloud deck at 5500 feet AGL
Weather: no significant weather observed at this time

METAR text: NCRG 200800Z AUTO 33007KT 9999 FEW025/// BKN055/// 25/22 Q1012
Conditions at: NCRG (RAROTONGA COOK I, WS) observed 0800 UTC 20 August 2019
Temperature: 25.0°C (77°F)
Dewpoint: 22.0°C (72°F) [RH = 83%]
Pressure (altimeter): 29.88 inches Hg (1012.0 mb)
Winds: from the NNW (330 degrees) at 8 MPH (7 knots; 3.6 m/s)
Visibility: 6 or more miles (10+ km)
Ceiling: 5500 feet AGL
Clouds: few clouds at 2500 feet AGL
broken clouds at 5500 feet AGL
Weather: no significant weather observed at this time

METAR text: NCRG 200730Z AUTO 33006KT 310V010 9999 FEW009/// BKN055/// 24/23 Q1012
Conditions at: NCRG (RAROTONGA COOK I, WS) observed 0730 UTC 20 August 2019
Temperature: 24.0°C (75°F)
Dewpoint: 23.0°C (73°F) [RH = 94%]
Pressure (altimeter): 29.88 inches Hg (1012.0 mb)
Winds: from the NNW (330 degrees) at 7 MPH (6 knots; 3.1 m/s)
Visibility: 6 or more miles (10+ km)
Ceiling: 5500 feet AGL
Clouds: few clouds at 900 feet AGL
broken clouds at 5500 feet AGL
Weather: no significant weather observed at this time

METAR text: NCRG 200700Z AUTO 35007KT 310V020 9999 FEW010/// SCT028/// 24/23 Q1012
Conditions at: NCRG (RAROTONGA COOK I, WS) observed 0700 UTC 20 August 2019
Temperature: 24.0°C (75°F)
Dewpoint: 23.0°C (73°F) [RH = 94%]
Pressure (altimeter): 29.88 inches Hg (1012.0 mb)
Winds: from the N (350 degrees) at 8 MPH (7 knots; 3.6 m/s)
Visibility: 6 or more miles (10+ km)
Ceiling: at least 12,000 feet AGL
Clouds: few clouds at 1000 feet AGL
scattered clouds at 2800 feet AGL
Weather: no significant weather observed at this time

METAR text: NCRG 200630Z AUTO 01006KT 320V080 9999 SCT012/// BKN038/// 24/22 Q1012
Conditions at: NCRG (RAROTONGA COOK I, WS) observed 0630 UTC 20 August 2019
Temperature: 24.0°C (75°F)
Dewpoint: 22.0°C (72°F) [RH = 89%]
Pressure (altimeter): 29.88 inches Hg (1012.0 mb)
Winds: from the N (10 degrees) at 7 MPH (6 knots; 3.1 m/s)
Visibility: 6 or more miles (10+ km)
Ceiling: 3800 feet AGL
Clouds: scattered clouds at 1200 feet AGL
broken clouds at 3800 feet AGL
Weather: no significant weather observed at this time

METAR text: NCRG 200600Z AUTO 35004KT 310V070 9999 FEW024/// OVC032/// 24/22 Q1012
Conditions at: NCRG (RAROTONGA COOK I, WS) observed 0600 UTC 20 August 2019
Temperature: 24.0°C (75°F)
Dewpoint: 22.0°C (72°F) [RH = 89%]
Pressure (altimeter): 29.88 inches Hg (1012.0 mb)
Winds: from the N (350 degrees) at 5 MPH (4 knots; 2.1 m/s)
Visibility: 6 or more miles (10+ km)
Ceiling: 3200 feet AGL
Clouds: few clouds at 2400 feet AGL
overcast cloud deck at 3200 feet AGL
Weather: no significant weather observed at this time

METAR text: NCRG 200530Z AUTO 35007KT 310V030 9999 BKN031/// BKN085/// 23/22 Q1011
Conditions at: NCRG (RAROTONGA COOK I, WS) observed 0530 UTC 20 August 2019
Temperature: 23.0°C (73°F)
Dewpoint: 22.0°C (72°F) [RH = 94%]
Pressure (altimeter): 29.85 inches Hg (1011.0 mb)
Winds: from the N (350 degrees) at 8 MPH (7 knots; 3.6 m/s)
Visibility: 6 or more miles (10+ km)
Ceiling: 3100 feet AGL
Clouds: broken clouds at 3100 feet AGL
broken clouds at 8500 feet AGL
Weather: no significant weather observed at this time

METAR text: NCRG 200500Z AUTO 35007KT 320V030 9999 -RA SCT008/// BKN090/// 23/22 Q1011
Conditions at: NCRG (RAROTONGA COOK I, WS) observed 0500 UTC 20 August 2019
Temperature: 23.0°C (73°F)
Dewpoint: 22.0°C (72°F) [RH = 94%]
Pressure (altimeter): 29.85 inches Hg (1011.0 mb)
Winds: from the N (350 degrees) at 8 MPH (7 knots; 3.6 m/s)
Visibility: 6 or more miles (10+ km)
Ceiling: 9000 feet AGL
Clouds: scattered clouds at 800 feet AGL
broken clouds at 9000 feet AGL
Weather: -RA  (light rain)

METAR text: NCRG 200430Z AUTO 29008KT 260V330 9999 BKN010/// OVC075/// 23/22 Q1011
Conditions at: NCRG (RAROTONGA COOK I, WS) observed 0430 UTC 20 August 2019
Temperature: 23.0°C (73°F)
Dewpoint: 22.0°C (72°F) [RH = 94%]
Pressure (altimeter): 29.85 inches Hg (1011.0 mb)
Winds: from the WNW (290 degrees) at 9 MPH (8 knots; 4.1 m/s)
Visibility: 6 or more miles (10+ km)
Ceiling: 1000 feet AGL
Clouds: broken clouds at 1000 feet AGL
overcast cloud deck at 7500 feet AGL
Weather: no significant weather observed at this time

METAR text: NCRG 200400Z AUTO 26009KT 220V290 9999 -RA FEW010/// SCT036/// BKN070/// 22/22 Q1011 RERA
Conditions at: NCRG (RAROTONGA COOK I, WS) observed 0400 UTC 20 August 2019
Temperature: 22.0°C (72°F)
Dewpoint: 22.0°C (72°F) [RH = 100%]
Pressure (altimeter): 29.85 inches Hg (1011.0 mb)
Winds: from the W (260 degrees) at 10 MPH (9 knots; 4.6 m/s)
Visibility: 6 or more miles (10+ km)
Ceiling: 7000 feet AGL
Clouds: few clouds at 1000 feet AGL
scattered clouds at 3600 feet AGL
broken clouds at 7000 feet AGL
Weather: -RA  (light rain)

METAR text: NCRG 200330Z AUTO /////KT //// +RA BCFG SCT005/// OVC012/// 23/22 Q1011
Conditions at: NCRG (RAROTONGA COOK I, WS) observed 0330 UTC 20 August 2019
Temperature: 23.0°C (73°F)
Dewpoint: 22.0°C (72°F) [RH = 94%]
Pressure (altimeter): 29.85 inches Hg (1011.0 mb)
Winds: missing
Visibility: missing
Ceiling: 1200 feet AGL
Clouds: scattered clouds at 500 feet AGL
overcast cloud deck at 1200 feet AGL
Weather: BCFG +RA  (patches of fog, heavy rain)

METAR text: NCRG 200230Z AUTO 35006KT 320V050 6000 RA SCT006/// BKN010/// BKN049/// 25/24 Q1010
Conditions at: NCRG (RAROTONGA COOK I, WS) observed 0230 UTC 20 August 2019
Temperature: 25.0°C (77°F)
Dewpoint: 24.0°C (75°F) [RH = 94%]
Pressure (altimeter): 29.82 inches Hg (1010.0 mb)
Winds: from the N (350 degrees) at 7 MPH (6 knots; 3.1 m/s)
Visibility: 4 miles ( 6 km)
Ceiling: 1000 feet AGL
Clouds: scattered clouds at 600 feet AGL
broken clouds at 1000 feet AGL
broken clouds at 4900 feet AGL
Weather: RA  (moderate rain)

METAR text: NCRG 200200Z AUTO 34008KT 5000 RA HZ SCT011/// BKN020/// BKN050/// 25/24 Q1010
Conditions at: NCRG (RAROTONGA COOK I, WS) observed 0200 UTC 20 August 2019
Temperature: 25.0°C (77°F)
Dewpoint: 24.0°C (75°F) [RH = 94%]
Pressure (altimeter): 29.82 inches Hg (1010.0 mb)
Winds: from the NNW (340 degrees) at 9 MPH (8 knots; 4.1 m/s)
Visibility: 3 miles ( 5 km)
Ceiling: 2000 feet AGL
Clouds: scattered clouds at 1100 feet AGL
broken clouds at 2000 feet AGL
broken clouds at 5000 feet AGL
Weather: RA HZ  (moderate rain, haze)

METAR text: NCRG 200130Z AUTO 34009KT 6000 RA FEW017/// BKN050/// OVC090/// 25/23 Q1010
Conditions at: NCRG (RAROTONGA COOK I, WS) observed 0130 UTC 20 August 2019
Temperature: 25.0°C (77°F)
Dewpoint: 23.0°C (73°F) [RH = 89%]
Pressure (altimeter): 29.82 inches Hg (1010.0 mb)
Winds: from the NNW (340 degrees) at 10 MPH (9 knots; 4.6 m/s)
Visibility: 4 miles ( 6 km)
Ceiling: 5000 feet AGL
Clouds: few clouds at 1700 feet AGL
broken clouds at 5000 feet AGL
overcast cloud deck at 9000 feet AGL
Weather: RA  (moderate rain)

Forecast for: NCRG (RAROTONGA COOK I, WS)
Text: TAF NCRG 211122Z 2112/2212 17008KT 9999 SCT017 SCT045
Forecast period: 1200 UTC 21 August 2019 to 1200 UTC 22 August 2019
Forecast type: FROM: standard forecast or significant change
Winds: from the S (170 degrees) at 9 MPH (8 knots; 4.1 m/s)
Visibility: 6 or more miles 10+ km)
Ceiling: at least 12,000 feet AGL
Clouds: scattered clouds at 1700 feet AGL
scattered clouds at 4500 feet AGL
Weather: no significant weather forecast for this period